createdAt,value
2019-05-25T00:02:12.625Z,37.10
2019-05-25T00:04:45.158Z,38.17
2019-05-25T00:07:17.327Z,42.27
2019-05-25T00:09:49.614Z,37.35
2019-05-25T00:12:23.714Z,41.28
2019-05-25T00:14:55.790Z,36.08
2019-05-25T00:17:27.917Z,37.33
2019-05-25T00:20:00.219Z,34.43
2019-05-25T00:22:32.606Z,29.00
2019-05-25T00:25:05.964Z,31.97
2019-05-25T00:27:38.186Z,31.65
2019-05-25T00:30:10.641Z,29.32
2019-05-25T00:32:42.941Z,30.68
2019-05-25T00:35:15.064Z,29.32
2019-05-25T00:37:47.351Z,27.77
2019-05-25T00:40:19.472Z,28.17
2019-05-25T00:42:51.605Z,32.88
2019-05-25T00:45:23.816Z,32.28
2019-05-25T00:47:56.022Z,39.60
2019-05-25T00:50:28.293Z,33.02
2019-05-25T00:53:00.481Z,31.77
2019-05-25T00:55:32.738Z,30.02
2019-05-25T00:58:05.011Z,35.90
2019-05-25T01:00:37.273Z,26.80
2019-05-25T01:03:09.525Z,35.08
2019-05-25T01:05:41.717Z,28.35
2019-05-25T01:08:13.706Z,35.10
2019-05-25T01:10:45.937Z,26.73
2019-05-25T01:13:18.503Z,32.00
2019-05-25T01:15:50.677Z,29.30
2019-05-25T01:18:22.882Z,31.37
2019-05-25T01:20:55.128Z,29.18
2019-05-25T01:23:27.180Z,31.05
2019-05-25T01:25:59.341Z,27.42
2019-05-25T01:28:31.616Z,24.67
2019-05-25T01:31:03.831Z,30.90
2019-05-25T01:33:35.945Z,26.48
2019-05-25T01:36:08.231Z,35.25
2019-05-25T01:38:40.500Z,27.85
2019-05-25T01:41:12.773Z,21.97
2019-05-25T01:43:44.976Z,20.48
2019-05-25T01:48:49.266Z,26.50
2019-05-25T01:51:21.556Z,25.10
2019-05-25T01:53:53.544Z,25.05
2019-05-25T01:56:25.778Z,26.73
2019-05-25T01:58:58.058Z,26.35
2019-05-25T02:01:30.424Z,24.65
2019-05-25T02:04:02.507Z,31.50
2019-05-25T02:06:35.716Z,27.98
2019-05-25T02:09:08.353Z,28.90
2019-05-25T02:11:40.624Z,30.92
2019-05-25T02:14:12.829Z,29.02
2019-05-25T02:16:45.070Z,31.00
2019-05-25T02:19:17.349Z,28.12
2019-05-25T02:21:49.621Z,29.98
2019-05-25T02:24:21.610Z,33.15
2019-05-25T02:26:53.662Z,25.52
2019-05-25T02:29:25.834Z,27.85
2019-05-25T02:31:57.821Z,28.42
2019-05-25T02:34:30.044Z,25.77
2019-05-25T02:37:02.201Z,29.85
2019-05-25T02:39:34.260Z,27.35
2019-05-25T02:42:06.641Z,28.60
2019-05-25T02:44:38.803Z,30.65
2019-05-25T02:47:11.153Z,25.68
2019-05-25T02:49:43.352Z,27.45
2019-05-25T02:52:15.413Z,25.88
2019-05-25T02:54:47.683Z,28.83
2019-05-25T02:57:19.966Z,31.62
2019-05-25T02:59:52.235Z,25.35
2019-05-25T03:02:24.702Z,28.17
2019-05-25T03:04:56.996Z,28.63
2019-05-25T03:07:30.055Z,26.75
2019-05-25T03:10:02.984Z,26.00
2019-05-25T03:15:07.714Z,24.82
2019-05-25T03:17:39.785Z,28.35
2019-05-25T03:20:12.443Z,27.75
2019-05-25T03:22:44.543Z,29.67
2019-05-25T03:25:18.031Z,32.75
2019-05-25T03:27:50.228Z,29.40
2019-05-25T03:30:33.482Z,31.02
2019-05-25T03:33:05.870Z,36.03
2019-05-25T03:35:37.918Z,27.60
2019-05-25T03:38:10.929Z,29.87
2019-05-25T03:40:43.068Z,29.67
2019-05-25T03:43:15.136Z,29.35
2019-05-25T03:45:47.331Z,32.05
2019-05-25T03:48:19.392Z,27.82
2019-05-25T03:50:51.446Z,29.87
2019-05-25T03:53:23.746Z,30.20
2019-05-25T03:56:05.197Z,30.20
2019-05-25T03:58:29.853Z,30.62
2019-05-25T04:01:02.020Z,26.30
2019-05-25T04:03:34.079Z,29.98
2019-05-25T04:06:06.329Z,28.87
2019-05-25T04:08:38.585Z,32.40
2019-05-25T04:11:10.876Z,21.42
2019-05-25T04:13:43.174Z,29.12
2019-05-25T04:16:15.411Z,28.70
2019-05-25T04:18:47.529Z,25.80
2019-05-25T04:21:19.730Z,26.73
2019-05-25T04:23:51.938Z,29.67
2019-05-25T04:26:27.451Z,26.62
2019-05-25T04:28:58.429Z,26.45
2019-05-25T04:31:30.522Z,30.68
2019-05-25T04:34:02.516Z,33.42
2019-05-25T04:36:34.703Z,34.33
2019-05-25T04:39:08.469Z,30.43
2019-05-25T04:41:40.650Z,38.38
2019-05-25T04:44:12.735Z,41.13
2019-05-25T04:46:45.007Z,34.53
2019-05-25T04:49:17.200Z,32.03
2019-05-25T04:51:49.172Z,31.85
2019-05-25T04:54:21.232Z,34.05
2019-05-25T04:56:53.469Z,39.30
2019-05-25T04:59:25.675Z,37.00
2019-05-25T05:01:57.837Z,39.60
2019-05-25T05:04:30.908Z,42.75
2019-05-25T05:07:02.951Z,33.38
2019-05-25T05:09:35.007Z,32.73
2019-05-25T05:12:07.158Z,38.20
2019-05-25T05:14:39.220Z,38.23
2019-05-25T05:17:11.272Z,36.10
2019-05-25T05:19:44.626Z,30.72
2019-05-25T05:22:16.897Z,31.77
2019-05-25T05:24:49.109Z,33.30
2019-05-25T05:27:21.330Z,24.63
2019-05-25T05:29:53.531Z,30.85
2019-05-25T05:32:27.812Z,26.15
2019-05-25T05:35:00.613Z,26.17
2019-05-25T05:37:32.879Z,28.92
2019-05-25T05:40:08.174Z,28.25
2019-05-25T05:42:43.306Z,25.45
2019-05-25T05:45:15.405Z,30.25
2019-05-25T05:47:50.172Z,28.30
2019-05-25T05:50:22.360Z,27.93
2019-05-25T05:52:55.758Z,26.07
2019-05-25T05:58:02.925Z,26.68
2019-05-25T06:00:34.988Z,26.23
2019-05-25T06:03:06.982Z,30.62
2019-05-25T06:05:39.055Z,32.35
2019-05-25T06:08:11.222Z,39.50
2019-05-25T06:10:43.595Z,21.27
2019-05-25T06:13:15.831Z,37.88
2019-05-25T06:15:48.106Z,26.93
2019-05-25T06:18:20.378Z,32.48
2019-05-25T06:20:52.623Z,28.47
2019-05-25T06:23:24.779Z,20.32
2019-05-25T06:25:57.078Z,22.57
2019-05-25T06:28:29.433Z,18.67
2019-05-25T06:31:01.818Z,19.57
2019-05-25T06:33:34.095Z,20.40
2019-05-25T06:36:06.356Z,18.43
2019-05-25T06:38:38.633Z,21.90
2019-05-25T06:41:10.699Z,19.95
2019-05-25T06:43:42.876Z,21.65
2019-05-25T06:46:15.129Z,22.37
2019-05-25T06:48:47.398Z,45.28
2019-05-25T06:51:19.592Z,44.05
2019-05-25T06:53:51.838Z,44.83
2019-05-25T06:56:24.042Z,41.95
2019-05-25T06:58:56.471Z,44.30
2019-05-25T07:01:29.085Z,39.30
2019-05-25T07:04:01.236Z,42.77
2019-05-25T07:06:33.530Z,34.55
2019-05-25T07:09:07.468Z,39.60
2019-05-25T07:11:39.569Z,39.83
2019-05-25T07:14:11.617Z,44.15
2019-05-25T07:16:43.837Z,35.48
2019-05-25T07:19:16.025Z,36.53
2019-05-25T07:21:48.167Z,33.53
2019-05-25T07:24:20.219Z,32.30
2019-05-25T07:26:52.499Z,32.20
2019-05-25T07:29:24.759Z,36.27
2019-05-25T07:31:58.093Z,36.03
2019-05-25T07:34:30.311Z,37.70
2019-05-25T07:37:02.594Z,22.43
2019-05-25T07:39:34.651Z,29.20
2019-05-25T07:42:06.850Z,21.90
2019-05-25T07:44:39.097Z,31.83
